Time;durP1;ratioP1;P1;durP2;ratioP2;P2;SDS_P1;SDS_P2;PMS_P1;PMS_P2;Temp;Humidity;BMP_temperature;BMP_pressure;BME280_temperature;BME280_humidity;BME280_pressure;Samples;Min_cycle;Max_cycle;Signal;HPM_P1;HPM_P2
2021/11/25 00:02:07;;;;;;;;;;;0.10;54.30;;;;;;4373233;32;19977;-38
2021/11/25 00:04:34;;;;;;;;;;;0.20;53.20;;;;;;4371421;32;19976;-40
2021/11/25 00:07:00;;;;;;;;;;;0.20;52.50;;;;;;4372953;32;20051;-40
2021/11/25 00:09:26;;;;;;;;;;;0.30;51.70;;;;;;4372365;32;20367;-39
2021/11/25 00:11:52;;;;;;;;;;;0.30;51.60;;;;;;4372574;32;19977;-42
2021/11/25 00:14:18;;;;;;;;;;;0.30;51.30;;;;;;4373132;32;20423;-39
2021/11/25 00:16:46;;;;;;;;;;;0.40;50.80;;;;;;4372589;32;19976;-40
2021/11/25 00:19:12;;;;;;;;;;;0.50;50.80;;;;;;4371377;32;20062;-42
2021/11/25 00:21:38;;;;;;;;;;;0.50;49.80;;;;;;4386804;32;19964;-37
2021/11/25 00:24:05;;;;;;;;;;;0.50;49.30;;;;;;4387995;32;20383;-42
2021/11/25 00:26:33;;;;;;;;;;;0.50;48.80;;;;;;4387643;32;19958;-40
2021/11/25 00:28:59;;;;;;;;;;;0.50;49.20;;;;;;4388563;32;20089;-49
2021/11/25 00:31:26;;;;;;;;;;;0.60;49.20;;;;;;4376068;32;20091;-47
2021/11/25 00:33:54;;;;;;;;;;;0.60;48.00;;;;;;4390648;32;20464;-42
2021/11/25 00:36:21;;;;;;;;;;;0.60;48.20;;;;;;4390032;32;19976;-41
2021/11/25 00:38:47;;;;;;;;;;;0.60;48.50;;;;;;4390291;32;20563;-43
2021/11/25 00:41:14;;;;;;;;;;;0.60;48.60;;;;;;4375853;32;19957;-40
2021/11/25 00:43:40;;;;;;;;;;;0.60;49.50;;;;;;4390632;32;19988;-39
2021/11/25 00:46:06;;;;;;;;;;;0.60;49.80;;;;;;4390173;32;19961;-40
2021/11/25 00:48:33;;;;;;;;;;;0.60;49.70;;;;;;4376384;32;19987;-40
2021/11/25 00:50:59;;;;;;;;;;;0.50;49.60;;;;;;4390138;32;19982;-40
2021/11/25 00:53:25;;;;;;;;;;;0.50;49.90;;;;;;4390612;32;19993;-42
2021/11/25 00:55:51;;;;;;;;;;;0.50;49.70;;;;;;4390020;32;20421;-42
2021/11/25 00:58:20;;;;;;;;;;;0.50;49.50;;;;;;4390226;32;19974;-41
2021/11/25 01:00:47;;;;;;;;;;;0.50;48.90;;;;;;4389722;32;19997;-45
2021/11/25 01:03:14;;;;;;;;;;;0.50;48.50;;;;;;4375723;32;19965;-41
2021/11/25 01:05:40;;;;;;;;;;;0.50;48.90;;;;;;4389979;32;19965;-42
2021/11/25 01:08:06;;;;;;;;;;;0.50;49.20;;;;;;4389971;32;19962;-40
2021/11/25 01:10:33;;;;;;;;;;;0.50;49.60;;;;;;4389638;32;20409;-41
2021/11/25 01:12:59;;;;;;;;;;;0.50;50.00;;;;;;4390279;32;20410;-41
2021/11/25 01:15:29;;;;;;;;;;;0.60;50.70;;;;;;4390128;32;19970;-40
2021/11/25 01:17:58;;;;;;;;;;;0.60;50.80;;;;;;4390025;32;19958;-39
2021/11/25 01:20:24;;;;;;;;;;;0.60;50.90;;;;;;4383449;32;20069;-41
2021/11/25 01:22:50;;;;;;;;;;;0.60;50.70;;;;;;4374543;32;20006;-42
2021/11/25 01:25:16;;;;;;;;;;;0.60;50.80;;;;;;4341865;32;19982;-41
2021/11/25 01:27:43;;;;;;;;;;;0.60;50.80;;;;;;4342433;32;20051;-40
2021/11/25 01:30:09;;;;;;;;;;;0.70;51.50;;;;;;4342126;32;20415;-40
2021/11/25 01:32:36;;;;;;;;;;;0.70;51.70;;;;;;4342402;33;20396;-40
2021/11/25 01:35:02;;;;;;;;;;;0.70;51.50;;;;;;4341904;33;19982;-40
2021/11/25 01:37:28;;;;;;;;;;;0.70;51.40;;;;;;4317834;33;19990;-40
2021/11/25 01:39:55;;;;;;;;;;;0.60;51.20;;;;;;4340878;32;20423;-39
2021/11/25 01:42:22;;;;;;;;;;;0.60;51.30;;;;;;4342256;33;19978;-41
2021/11/25 01:44:48;;;;;;;;;;;0.60;51.70;;;;;;4342303;32;20006;-40
2021/11/25 01:47:14;;;;;;;;;;;0.60;51.60;;;;;;4342041;33;19989;-39
2021/11/25 01:49:41;;;;;;;;;;;0.60;51.90;;;;;;4329450;33;20463;-42
2021/11/25 01:52:07;;;;;;;;;;;0.50;51.60;;;;;;4341411;33;19967;-41
2021/11/25 01:54:33;;;;;;;;;;;0.50;52.40;;;;;;4342109;33;20003;-41
2021/11/25 01:56:59;;;;;;;;;;;0.60;51.90;;;;;;4367366;32;19961;-41
2021/11/25 01:59:26;;;;;;;;;;;0.60;52.50;;;;;;4374066;32;19981;-39
2021/11/25 02:01:52;;;;;;;;;;;0.60;51.50;;;;;;4373757;32;19985;-40
2021/11/25 02:04:19;;;;;;;;;;;0.60;51.30;;;;;;4360073;32;20074;-40
2021/11/25 02:06:45;;;;;;;;;;;0.60;51.60;;;;;;4374024;32;19968;-40
2021/11/25 02:09:11;;;;;;;;;;;0.60;51.60;;;;;;4374111;32;19985;-40
2021/11/25 02:11:38;;;;;;;;;;;0.70;51.30;;;;;;4373961;32;20046;-40
2021/11/25 02:14:05;;;;;;;;;;;0.70;50.90;;;;;;4374084;32;20451;-41
2021/11/25 02:16:31;;;;;;;;;;;0.70;51.30;;;;;;4373812;32;20039;-42
2021/11/25 02:18:58;;;;;;;;;;;0.80;51.80;;;;;;4374028;32;19976;-39
2021/11/25 02:21:28;;;;;;;;;;;0.80;50.90;;;;;;4374575;32;19981;-39
2021/11/25 02:23:54;;;;;;;;;;;0.80;51.10;;;;;;4374546;32;19969;-39
2021/11/25 02:26:20;;;;;;;;;;;0.80;51.00;;;;;;4374043;32;20370;-40
2021/11/25 02:28:46;;;;;;;;;;;0.80;51.60;;;;;;4359631;32;19966;-40
2021/11/25 02:31:13;;;;;;;;;;;0.80;51.70;;;;;;4373593;32;20041;-41
2021/11/25 02:33:40;;;;;;;;;;;0.80;52.10;;;;;;4373917;32;19970;-40
2021/11/25 02:36:06;;;;;;;;;;;0.90;52.20;;;;;;4373321;32;20479;-43
2021/11/25 02:38:32;;;;;;;;;;;0.90;52.20;;;;;;4373511;32;19970;-40
2021/11/25 02:40:59;;;;;;;;;;;0.90;52.30;;;;;;4382721;32;20021;-41
2021/11/25 02:43:27;;;;;;;;;;;0.90;52.30;;;;;;4374278;32;20374;-41
2021/11/25 02:45:58;;;;;;;;;;;0.90;52.10;;;;;;4388448;32;19985;-40
2021/11/25 02:48:26;;;;;;;;;;;0.90;51.80;;;;;;4388391;32;19970;-39
2021/11/25 02:50:53;;;;;;;;;;;0.80;51.60;;;;;;4388120;32;20078;-41
2021/11/25 02:53:26;;;;;;;;;;;0.90;51.70;;;;;;4387823;32;19980;-40
2021/11/25 02:56:03;;;;;;;;;;;0.80;51.70;;;;;;4388282;32;19966;-41
2021/11/25 02:58:29;;;;;;;;;;;0.80;51.90;;;;;;4388006;32;20004;-42
2021/11/25 03:00:58;;;;;;;;;;;0.80;51.90;;;;;;4388011;32;19965;-41
2021/11/25 03:03:25;;;;;;;;;;;0.80;52.20;;;;;;4388277;32;19961;-40
2021/11/25 03:05:51;;;;;;;;;;;0.80;52.50;;;;;;4388290;32;19970;-42
2021/11/25 03:08:19;;;;;;;;;;;0.80;52.40;;;;;;4387818;32;20041;-38
2021/11/25 03:10:47;;;;;;;;;;;0.90;52.60;;;;;;4374514;32;20055;-42
2021/11/25 03:13:16;;;;;;;;;;;0.90;52.50;;;;;;4388666;32;19981;-41
2021/11/25 03:15:42;;;;;;;;;;;0.90;52.50;;;;;;4388355;32;20422;-41
2021/11/25 03:18:09;;;;;;;;;;;0.90;52.40;;;;;;4374056;32;20005;-40
2021/11/25 03:20:37;;;;;;;;;;;0.90;52.30;;;;;;4380329;32;19997;-41
2021/11/25 03:23:05;;;;;;;;;;;0.90;52.50;;;;;;4371083;32;20366;-40
2021/11/25 03:25:32;;;;;;;;;;;1.00;52.50;;;;;;4346522;32;19964;-41
2021/11/25 03:27:58;;;;;;;;;;;0.90;52.40;;;;;;4373053;32;19994;-40
2021/11/25 03:30:25;;;;;;;;;;;0.90;52.60;;;;;;4372985;32;20047;-41
2021/11/25 03:32:51;;;;;;;;;;;1.00;52.80;;;;;;4373015;32;20026;-40
2021/11/25 03:35:17;;;;;;;;;;;1.00;52.50;;;;;;4373286;32;20417;-40
2021/11/25 03:37:43;;;;;;;;;;;1.00;52.40;;;;;;4372754;32;19985;-39
2021/11/25 03:40:10;;;;;;;;;;;1.00;52.50;;;;;;4372581;32;19994;-41
2021/11/25 03:42:36;;;;;;;;;;;1.00;52.90;;;;;;4372576;32;20041;-41
2021/11/25 03:45:05;;;;;;;;;;;1.00;52.70;;;;;;4359149;32;19970;-40
2021/11/25 03:47:31;;;;;;;;;;;1.00;52.50;;;;;;4373175;32;19966;-39
2021/11/25 03:49:57;;;;;;;;;;;1.00;52.50;;;;;;4372277;32;20393;-41
2021/11/25 03:52:23;;;;;;;;;;;1.00;52.70;;;;;;4371435;32;19977;-40
2021/11/25 03:54:54;;;;;;;;;;;1.00;53.00;;;;;;4372773;32;20414;-41
2021/11/25 03:57:24;;;;;;;;;;;1.00;53.10;;;;;;4373203;32;19966;-42
2021/11/25 03:59:51;;;;;;;;;;;1.00;53.00;;;;;;4373188;32;19962;-40
2021/11/25 04:02:17;;;;;;;;;;;1.00;53.00;;;;;;4373087;32;20042;-41
2021/11/25 04:04:44;;;;;;;;;;;1.00;53.10;;;;;;4375016;32;19974;-43
2021/11/25 04:07:10;;;;;;;;;;;1.10;53.20;;;;;;4375414;32;19969;-42
2021/11/25 04:09:36;;;;;;;;;;;1.10;53.20;;;;;;4376223;32;20374;-40
2021/11/25 04:12:03;;;;;;;;;;;1.10;53.30;;;;;;4376340;32;19966;-42
2021/11/25 04:14:29;;;;;;;;;;;1.00;53.50;;;;;;4375710;32;19964;-39
2021/11/25 04:16:55;;;;;;;;;;;1.10;53.70;;;;;;4375720;32;19969;-41
2021/11/25 04:19:21;;;;;;;;;;;1.10;54.00;;;;;;4374988;32;20422;-37
2021/11/25 04:21:47;;;;;;;;;;;1.10;53.90;;;;;;4375470;32;20056;-40
2021/11/25 04:24:14;;;;;;;;;;;1.10;53.90;;;;;;4375331;32;19978;-39
2021/11/25 04:26:43;;;;;;;;;;;1.20;54.00;;;;;;4375293;32;19986;-39
2021/11/25 04:29:10;;;;;;;;;;;1.10;53.90;;;;;;4375345;32;20459;-40
2021/11/25 04:37:06;;;;;;;;;;;1.20;54.10;;;;;;4373948;32;20041;-41
2021/11/25 04:39:32;;;;;;;;;;;1.20;54.10;;;;;;4375120;32;19958;-39
2021/11/25 04:41:58;;;;;;;;;;;1.20;54.10;;;;;;4389606;32;20474;-41
2021/11/25 04:44:24;;;;;;;;;;;1.20;54.00;;;;;;4390435;32;19954;-41
2021/11/25 04:46:50;;;;;;;;;;;1.20;54.10;;;;;;4390221;32;19970;-41
2021/11/25 04:49:16;;;;;;;;;;;1.20;54.10;;;;;;4375660;32;19981;-42
2021/11/25 04:51:43;;;;;;;;;;;1.20;54.10;;;;;;4389925;32;19962;-41
2021/11/25 04:54:09;;;;;;;;;;;1.20;54.20;;;;;;4390069;32;20486;-42
2021/11/25 04:56:36;;;;;;;;;;;1.30;54.60;;;;;;4389998;32;20070;-40
2021/11/25 04:59:02;;;;;;;;;;;1.30;55.30;;;;;;4376566;32;19976;-41
2021/11/25 05:01:28;;;;;;;;;;;1.20;54.80;;;;;;4389763;32;20460;-39
2021/11/25 05:03:55;;;;;;;;;;;1.30;55.20;;;;;;4390134;32;20051;-39
2021/11/25 05:06:21;;;;;;;;;;;1.30;55.30;;;;;;4390265;32;20491;-41
2021/11/25 05:08:47;;;;;;;;;;;1.30;55.10;;;;;;4389718;32;20058;-41
2021/11/25 05:11:13;;;;;;;;;;;1.30;55.00;;;;;;4389602;32;19982;-40
2021/11/25 05:13:40;;;;;;;;;;;1.40;55.10;;;;;;4389771;32;19966;-39
2021/11/25 05:16:06;;;;;;;;;;;1.40;54.80;;;;;;4389220;32;20077;-42
2021/11/25 05:18:33;;;;;;;;;;;1.40;54.90;;;;;;4389175;32;19998;-41
2021/11/25 05:20:59;;;;;;;;;;;1.50;55.00;;;;;;4379620;32;20000;-40
2021/11/25 05:23:26;;;;;;;;;;;1.50;54.70;;;;;;4374518;32;20429;-39
2021/11/25 05:25:53;;;;;;;;;;;1.60;54.60;;;;;;4360617;32;20421;-40
2021/11/25 05:28:19;;;;;;;;;;;1.60;54.70;;;;;;4374183;32;19973;-40
2021/11/25 05:30:45;;;;;;;;;;;1.60;54.70;;;;;;4374404;32;20394;-41
2021/11/25 05:33:12;;;;;;;;;;;1.70;54.60;;;;;;4374439;32;20131;-40
2021/11/25 05:35:38;;;;;;;;;;;1.70;54.40;;;;;;4374554;32;20052;-42
2021/11/25 05:38:04;;;;;;;;;;;1.80;54.40;;;;;;4374396;32;19963;-39
2021/11/25 05:40:31;;;;;;;;;;;1.80;54.40;;;;;;4374345;32;19990;-39
2021/11/25 05:42:57;;;;;;;;;;;1.80;54.60;;;;;;4374386;32;19980;-40
2021/11/25 05:45:23;;;;;;;;;;;1.80;54.60;;;;;;4356587;32;20031;-41
2021/11/25 05:47:50;;;;;;;;;;;1.80;54.60;;;;;;4343951;32;20534;-39
2021/11/25 05:50:24;;;;;;;;;;;1.80;54.80;;;;;;4356975;32;20032;-41
2021/11/25 05:52:53;;;;;;;;;;;1.90;55.20;;;;;;4356957;32;20132;-42
2021/11/25 05:55:19;;;;;;;;;;;1.90;55.30;;;;;;4356516;32;19974;-41
2021/11/25 05:57:46;;;;;;;;;;;1.90;55.70;;;;;;4356875;32;19986;-41
2021/11/25 06:00:13;;;;;;;;;;;1.90;55.80;;;;;;4356533;32;20591;-41
2021/11/25 06:02:40;;;;;;;;;;;1.90;56.10;;;;;;4356669;32;19990;-41
2021/11/25 06:05:07;;;;;;;;;;;1.90;56.30;;;;;;4356712;32;19970;-41
2021/11/25 06:07:33;;;;;;;;;;;1.90;56.60;;;;;;4356950;32;20101;-41
2021/11/25 06:10:00;;;;;;;;;;;1.90;56.90;;;;;;4356772;32;19974;-40
2021/11/25 06:12:26;;;;;;;;;;;1.90;56.90;;;;;;4356917;32;19993;-41
2021/11/25 06:14:52;;;;;;;;;;;1.90;56.80;;;;;;4356567;32;19982;-45
2021/11/25 06:17:18;;;;;;;;;;;1.90;56.50;;;;;;4356345;32;19997;-42
2021/11/25 06:19:44;;;;;;;;;;;2.00;56.60;;;;;;4356508;32;19974;-43
2021/11/25 06:22:11;;;;;;;;;;;2.00;56.50;;;;;;4363874;32;19989;-42
2021/11/25 06:24:37;;;;;;;;;;;2.00;56.30;;;;;;4388718;32;19977;-44
2021/11/25 06:27:03;;;;;;;;;;;2.00;56.40;;;;;;4388042;32;20561;-44
2021/11/25 06:29:30;;;;;;;;;;;2.10;56.30;;;;;;4388283;32;20039;-42
2021/11/25 06:31:57;;;;;;;;;;;2.10;56.10;;;;;;4374390;32;19958;-42
2021/11/25 06:34:23;;;;;;;;;;;2.20;56.10;;;;;;4387841;32;19969;-43
2021/11/25 06:36:49;;;;;;;;;;;2.20;56.10;;;;;;4388379;32;20618;-44
2021/11/25 06:39:15;;;;;;;;;;;2.20;55.90;;;;;;4388640;32;20033;-43
2021/11/25 06:41:42;;;;;;;;;;;2.30;56.00;;;;;;4388100;32;19961;-43
2021/11/25 06:44:08;;;;;;;;;;;2.30;55.90;;;;;;4374460;32;19977;-42
2021/11/25 06:46:34;;;;;;;;;;;2.30;55.90;;;;;;4388001;32;20436;-40
2021/11/25 06:49:00;;;;;;;;;;;2.30;55.80;;;;;;4355873;32;19989;-40
2021/11/25 06:51:27;;;;;;;;;;;2.30;55.60;;;;;;4355852;32;19981;-41
2021/11/25 06:53:54;;;;;;;;;;;2.30;55.80;;;;;;4355594;32;20418;-42
2021/11/25 06:56:20;;;;;;;;;;;2.40;56.00;;;;;;4355957;32;20596;-43
2021/11/25 06:58:49;;;;;;;;;;;2.40;56.20;;;;;;4355796;32;20500;-42
2021/11/25 07:01:15;;;;;;;;;;;2.50;56.30;;;;;;4355975;32;20419;-40
2021/11/25 07:03:41;;;;;;;;;;;2.50;56.30;;;;;;4355742;32;19974;-42
2021/11/25 07:06:07;;;;;;;;;;;2.50;56.40;;;;;;4355539;32;20073;-41
2021/11/25 07:08:34;;;;;;;;;;;2.60;56.50;;;;;;4340306;33;19991;-41
2021/11/25 07:11:00;;;;;;;;;;;2.60;56.50;;;;;;4341088;33;20446;-41
2021/11/25 07:13:27;;;;;;;;;;;2.60;56.30;;;;;;4341415;33;20398;-40
2021/11/25 07:15:53;;;;;;;;;;;2.60;56.40;;;;;;4340946;33;19974;-40
2021/11/25 07:18:19;;;;;;;;;;;2.70;56.70;;;;;;4311402;33;19978;-41
2021/11/25 07:20:46;;;;;;;;;;;2.70;56.80;;;;;;4314428;33;20006;-41
2021/11/25 07:23:12;;;;;;;;;;;2.80;56.40;;;;;;4311010;33;19975;-41
2021/11/25 07:25:38;;;;;;;;;;;2.80;56.50;;;;;;4311706;33;19987;-41
2021/11/25 07:28:05;;;;;;;;;;;2.80;56.30;;;;;;4311212;33;19975;-42
2021/11/25 07:30:31;;;;;;;;;;;2.90;56.10;;;;;;4311735;33;19975;-41
2021/11/25 07:32:57;;;;;;;;;;;2.90;56.20;;;;;;4311558;33;20145;-40
2021/11/25 07:35:23;;;;;;;;;;;2.90;55.80;;;;;;4311590;33;19999;-40
2021/11/25 07:37:52;;;;;;;;;;;2.90;55.90;;;;;;4312174;33;19975;-40
2021/11/25 07:40:18;;;;;;;;;;;3.00;55.80;;;;;;4325623;33;20044;-41
2021/11/25 07:42:45;;;;;;;;;;;3.00;56.00;;;;;;4328469;33;20039;-41
2021/11/25 07:45:11;;;;;;;;;;;3.10;56.10;;;;;;4328923;33;19987;-39
2021/11/25 07:47:37;;;;;;;;;;;3.10;55.80;;;;;;4328699;33;20073;-41
2021/11/25 07:50:12;;;;;;;;;;;3.10;55.90;;;;;;4366578;32;19985;-39
2021/11/25 07:52:39;;;;;;;;;;;3.10;56.00;;;;;;4376120;32;19974;-40
2021/11/25 07:55:06;;;;;;;;;;;3.10;56.30;;;;;;4361995;32;19974;-41
2021/11/25 07:57:32;;;;;;;;;;;3.10;56.60;;;;;;4376032;32;19966;-39
2021/11/25 07:59:58;;;;;;;;;;;3.10;56.50;;;;;;4375573;32;19972;-40
2021/11/25 08:02:24;;;;;;;;;;;3.10;56.80;;;;;;4375475;32;20481;-39
2021/11/25 08:04:52;;;;;;;;;;;3.20;57.20;;;;;;4375919;32;19982;-41
2021/11/25 08:07:19;;;;;;;;;;;3.10;57.20;;;;;;4375940;32;19972;-40
2021/11/25 08:09:45;;;;;;;;;;;3.10;57.40;;;;;;4375621;32;19970;-40
2021/11/25 08:12:11;;;;;;;;;;;3.20;57.50;;;;;;4375341;32;19974;-40
2021/11/25 08:14:37;;;;;;;;;;;3.20;57.60;;;;;;4375324;32;19985;-39
2021/11/25 08:17:04;;;;;;;;;;;3.30;57.40;;;;;;4372916;32;20037;-40
2021/11/25 08:19:30;;;;;;;;;;;3.30;57.40;;;;;;4373049;32;19985;-40
2021/11/25 08:21:56;;;;;;;;;;;3.40;57.30;;;;;;4345167;32;20005;-40
2021/11/25 08:24:22;;;;;;;;;;;3.40;57.20;;;;;;4357642;32;19969;-40
2021/11/25 08:26:49;;;;;;;;;;;3.50;57.10;;;;;;4357329;32;20055;-39
2021/11/25 08:29:15;;;;;;;;;;;3.60;56.90;;;;;;4357712;32;19967;-39
2021/11/25 08:31:41;;;;;;;;;;;3.60;56.70;;;;;;4357758;32;19991;-39
2021/11/25 08:34:07;;;;;;;;;;;3.70;56.40;;;;;;4357775;32;19978;-40
2021/11/25 08:36:33;;;;;;;;;;;3.70;56.00;;;;;;4358159;32;20080;-40
2021/11/25 08:39:00;;;;;;;;;;;3.70;56.10;;;;;;4357801;32;19986;-40
2021/11/25 08:41:26;;;;;;;;;;;3.70;56.10;;;;;;4357478;32;19986;-37
2021/11/25 08:43:52;;;;;;;;;;;3.80;56.30;;;;;;4332642;32;19970;-39
2021/11/25 08:46:19;;;;;;;;;;;3.80;56.30;;;;;;4357627;32;20059;-36
2021/11/25 08:48:45;;;;;;;;;;;3.90;56.20;;;;;;4330530;33;20035;-40
2021/11/25 08:51:12;;;;;;;;;;;3.90;56.10;;;;;;4327332;33;20562;-40
2021/11/25 08:53:38;;;;;;;;;;;3.90;56.00;;;;;;4327591;33;20063;-38
2021/11/25 08:56:06;;;;;;;;;;;3.90;56.20;;;;;;4328086;33;19971;-39
2021/11/25 08:58:32;;;;;;;;;;;4.00;56.10;;;;;;4327154;33;20061;-40
2021/11/25 09:00:58;;;;;;;;;;;4.00;56.00;;;;;;4327414;33;19995;-40
2021/11/25 09:03:25;;;;;;;;;;;4.00;55.90;;;;;;4326927;33;20486;-39
2021/11/25 09:05:52;;;;;;;;;;;4.00;55.90;;;;;;4327359;33;19963;-39
2021/11/25 09:08:18;;;;;;;;;;;4.10;56.00;;;;;;4327352;33;20090;-40
2021/11/25 09:10:45;;;;;;;;;;;4.10;56.00;;;;;;4327628;33;19979;-40
2021/11/25 09:13:11;;;;;;;;;;;4.10;56.30;;;;;;4327681;33;19971;-40
2021/11/25 09:15:39;;;;;;;;;;;4.20;56.30;;;;;;4327896;33;19979;-41
2021/11/25 09:18:07;;;;;;;;;;;4.20;56.20;;;;;;4327901;33;19977;-40
2021/11/25 09:20:34;;;;;;;;;;;4.30;56.20;;;;;;4366789;32;20039;-41
2021/11/25 09:23:02;;;;;;;;;;;4.30;56.20;;;;;;4374663;32;19954;-42
2021/11/25 09:25:29;;;;;;;;;;;4.40;56.20;;;;;;4374841;32;20033;-41
2021/11/25 09:27:55;;;;;;;;;;;4.40;56.10;;;;;;4374528;32;19966;-42
2021/11/25 09:30:21;;;;;;;;;;;4.50;56.00;;;;;;4373967;32;20441;-41
2021/11/25 09:32:48;;;;;;;;;;;4.50;55.90;;;;;;4374304;32;20539;-40
2021/11/25 09:35:14;;;;;;;;;;;4.60;55.90;;;;;;4374132;32;20055;-42
2021/11/25 09:37:40;;;;;;;;;;;4.60;55.70;;;;;;4374110;32;20054;-39
2021/11/25 09:40:12;;;;;;;;;;;4.60;55.40;;;;;;4378215;32;19961;-41
2021/11/25 09:42:38;;;;;;;;;;;4.60;55.40;;;;;;4389657;32;19993;-40
2021/11/25 09:45:06;;;;;;;;;;;4.70;55.60;;;;;;4389181;32;19953;-42
2021/11/25 09:47:32;;;;;;;;;;;4.70;55.40;;;;;;4389039;32;19964;-41
2021/11/25 09:49:59;;;;;;;;;;;4.70;55.30;;;;;;4388776;32;20005;-42
2021/11/25 09:52:25;;;;;;;;;;;4.70;55.60;;;;;;4374757;32;20035;-40
2021/11/25 09:54:51;;;;;;;;;;;4.70;55.70;;;;;;4389065;32;19973;-42
2021/11/25 09:57:17;;;;;;;;;;;4.70;55.90;;;;;;4375240;32;19970;-40
2021/11/25 09:59:43;;;;;;;;;;;4.70;55.60;;;;;;4375127;32;19972;-40
2021/11/25 10:02:10;;;;;;;;;;;4.80;55.70;;;;;;4388375;32;20034;-42
2021/11/25 10:04:36;;;;;;;;;;;4.80;55.70;;;;;;4388522;32;19969;-42
2021/11/25 10:07:02;;;;;;;;;;;4.80;56.00;;;;;;4388748;32;20395;-41
2021/11/25 10:09:36;;;;;;;;;;;4.80;56.10;;;;;;4389078;32;19973;-41
2021/11/25 10:12:36;;;;;;;;;;;4.80;56.30;;;;;;4389132;32;20041;-40
2021/11/25 10:15:26;;;;;;;;;;;4.80;56.50;;;;;;4388798;32;20001;-42
2021/11/25 10:17:53;;;;;;;;;;;4.80;56.70;;;;;;4388798;32;20394;-41
2021/11/25 10:21:47;;;;;;;;;;;4.80;56.50;;;;;;3808307;37;19959;-42
2021/11/25 10:24:14;;;;;;;;;;;4.90;56.40;;;;;;4384844;32;19958;-40
2021/11/25 10:26:40;;;;;;;;;;;4.90;56.30;;;;;;4386450;32;19974;-42
2021/11/25 10:29:08;;;;;;;;;;;4.90;56.30;;;;;;4385853;32;19966;-42
2021/11/25 10:31:36;;;;;;;;;;;5.00;56.40;;;;;;4386382;32;20054;-41
2021/11/25 10:34:23;;;;;;;;;;;5.00;56.10;;;;;;4384431;32;20078;-41
2021/11/25 10:41:49;;;;;;;;;;;5.10;56.00;;;;;;4385966;32;19998;-41
2021/11/25 10:44:27;;;;;;;;;;;5.10;56.10;;;;;;4386213;32;19962;-40
2021/11/25 10:47:19;;;;;;;;;;;5.10;56.30;;;;;;4384530;32;19981;-41
2021/11/25 10:49:47;;;;;;;;;;;5.10;56.50;;;;;;4385693;32;20407;-42
2021/11/25 10:52:17;;;;;;;;;;;5.10;56.60;;;;;;4373490;32;19959;-40
2021/11/25 10:54:46;;;;;;;;;;;5.10;56.80;;;;;;4370807;32;20457;-37
2021/11/25 10:57:12;;;;;;;;;;;5.10;56.90;;;;;;4370741;32;19978;-42
2021/11/25 10:59:41;;;;;;;;;;;5.20;57.00;;;;;;4369219;32;19982;-42
2021/11/25 11:02:18;;;;;;;;;;;5.20;56.90;;;;;;4370462;32;19974;-42
2021/11/25 11:04:44;;;;;;;;;;;5.20;56.80;;;;;;4370693;32;19974;-41
2021/11/25 11:07:40;;;;;;;;;;;5.10;57.10;;;;;;4370705;32;20090;-42
2021/11/25 11:10:27;;;;;;;;;;;5.20;57.00;;;;;;4308479;33;20105;-41
2021/11/25 11:16:12;;;;;;;;;;;5.30;57.20;;;;;;4309037;33;19986;-42
2021/11/25 11:19:02;;;;;;;;;;;5.30;57.80;;;;;;4308674;33;20585;-40
2021/11/25 11:21:58;;;;;;;;;;;5.30;57.20;;;;;;4295784;33;20004;-41
2021/11/25 11:24:26;;;;;;;;;;;5.30;57.20;;;;;;4294178;33;20007;-42
2021/11/25 11:26:54;;;;;;;;;;;5.40;57.20;;;;;;4294505;33;20122;-41
2021/11/25 11:29:26;;;;;;;;;;;5.30;57.00;;;;;;4293881;33;20152;-41
2021/11/25 11:31:54;;;;;;;;;;;5.30;56.80;;;;;;4289302;33;19988;-43
2021/11/25 11:34:20;;;;;;;;;;;5.40;57.00;;;;;;4284426;33;20100;-43
2021/11/25 11:36:48;;;;;;;;;;;5.40;57.00;;;;;;4284531;33;20070;-38
2021/11/25 11:39:16;;;;;;;;;;;5.40;57.40;;;;;;4284667;33;19988;-40
2021/11/25 11:41:45;;;;;;;;;;;5.50;56.70;;;;;;4284699;33;20042;-41
2021/11/25 11:44:11;;;;;;;;;;;5.50;56.60;;;;;;4284191;33;19971;-43
2021/11/25 11:46:39;;;;;;;;;;;5.50;56.70;;;;;;4317687;33;19999;-43
2021/11/25 11:49:05;;;;;;;;;;;5.60;56.70;;;;;;4345127;32;20075;-42
2021/11/25 11:51:32;;;;;;;;;;;5.60;56.70;;;;;;4330747;33;19989;-42
2021/11/25 11:53:58;;;;;;;;;;;5.60;56.60;;;;;;4345069;32;19985;-42
2021/11/25 11:56:42;;;;;;;;;;;5.60;56.70;;;;;;4345209;32;19966;-43
2021/11/25 11:59:09;;;;;;;;;;;5.60;56.60;;;;;;4344766;33;19969;-44
2021/11/25 12:01:35;;;;;;;;;;;5.60;56.80;;;;;;4344669;32;20074;-43
2021/11/25 12:04:04;;;;;;;;;;;5.60;56.80;;;;;;4344600;32;20057;-44
2021/11/25 12:07:03;;;;;;;;;;;5.50;57.00;;;;;;4344278;32;20384;-42
2021/11/25 12:09:31;;;;;;;;;;;5.50;56.90;;;;;;4286171;33;20143;-42
2021/11/25 12:12:08;;;;;;;;;;;5.50;57.70;;;;;;4298388;33;19995;-42
2021/11/25 12:14:34;;;;;;;;;;;5.50;57.20;;;;;;4298398;33;19999;-41
2021/11/25 12:17:01;;;;;;;;;;;5.50;57.30;;;;;;4298070;33;19972;-41
2021/11/25 12:19:33;;;;;;;;;;;5.50;57.30;;;;;;4297384;33;20030;-40
2021/11/25 12:22:02;;;;;;;;;;;5.50;57.30;;;;;;4272321;33;19983;-43
2021/11/25 12:24:44;;;;;;;;;;;5.40;57.50;;;;;;4283869;33;19972;-42
2021/11/25 12:27:18;;;;;;;;;;;5.40;57.30;;;;;;4283640;33;19968;-43
2021/11/25 12:30:00;;;;;;;;;;;5.40;57.40;;;;;;4283534;33;20452;-44
2021/11/25 12:32:45;;;;;;;;;;;5.40;57.50;;;;;;4283622;33;20033;-44
2021/11/25 12:35:14;;;;;;;;;;;5.40;57.50;;;;;;4283817;33;20052;-45
2021/11/25 12:37:46;;;;;;;;;;;5.40;57.30;;;;;;4283558;33;20495;-43
2021/11/25 12:40:21;;;;;;;;;;;5.40;57.60;;;;;;4283189;33;20042;-44
2021/11/25 12:43:10;;;;;;;;;;;5.40;57.70;;;;;;4283194;33;19986;-45
2021/11/25 12:45:51;;;;;;;;;;;5.50;58.40;;;;;;4299439;33;19994;-44
2021/11/25 12:48:37;;;;;;;;;;;5.50;57.90;;;;;;4312390;33;20440;-44
2021/11/25 12:51:17;;;;;;;;;;;5.50;57.90;;;;;;4301092;33;20072;-40
2021/11/25 12:53:50;;;;;;;;;;;5.50;58.00;;;;;;4312384;33;20461;-43
2021/11/25 12:56:24;;;;;;;;;;;5.60;58.10;;;;;;4312492;33;20440;-44
2021/11/25 12:58:58;;;;;;;;;;;5.60;57.80;;;;;;4312354;33;19968;-44
2021/11/25 13:01:29;;;;;;;;;;;5.70;57.90;;;;;;4312271;33;19968;-44
2021/11/25 13:04:09;;;;;;;;;;;5.70;57.90;;;;;;4312098;33;20423;-42
2021/11/25 13:06:37;;;;;;;;;;;5.60;57.80;;;;;;4312363;33;19979;-43
2021/11/25 13:09:06;;;;;;;;;;;5.70;57.80;;;;;;4312540;33;19975;-45
2021/11/25 13:11:33;;;;;;;;;;;5.70;57.70;;;;;;4311914;33;20529;-45
2021/11/25 13:14:05;;;;;;;;;;;5.80;57.80;;;;;;4299713;33;20003;-43
2021/11/25 13:16:38;;;;;;;;;;;5.80;57.60;;;;;;4319602;33;19963;-43
2021/11/25 13:19:06;;;;;;;;;;;5.80;57.70;;;;;;4315911;33;19966;-44
2021/11/25 13:21:44;;;;;;;;;;;5.70;58.40;;;;;;4354449;32;20064;-43
2021/11/25 13:24:16;;;;;;;;;;;5.80;57.90;;;;;;4358412;32;20000;-44
2021/11/25 13:27:14;;;;;;;;;;;5.80;58.00;;;;;;4357876;32;19998;-42
2021/11/25 13:29:51;;;;;;;;;;;5.80;58.00;;;;;;4311899;33;19970;-43
2021/11/25 13:32:25;;;;;;;;;;;5.80;58.00;;;;;;4300841;33;19975;-42
2021/11/25 13:34:53;;;;;;;;;;;5.80;58.10;;;;;;4312275;33;19990;-44
2021/11/25 13:37:24;;;;;;;;;;;5.80;58.10;;;;;;4312049;33;19970;-44
2021/11/25 13:39:58;;;;;;;;;;;5.80;58.00;;;;;;4299583;33;19963;-44
2021/11/25 13:42:34;;;;;;;;;;;5.80;58.00;;;;;;4299951;33;20573;-40
2021/11/25 13:45:03;;;;;;;;;;;5.80;57.80;;;;;;4311728;33;19978;-44
2021/11/25 13:47:35;;;;;;;;;;;5.80;57.80;;;;;;4311428;33;19972;-44
2021/11/25 13:50:12;;;;;;;;;;;5.80;57.80;;;;;;4311568;33;20063;-44
2021/11/25 13:52:43;;;;;;;;;;;5.80;57.80;;;;;;4300234;33;19979;-46
2021/11/25 13:55:14;;;;;;;;;;;5.80;57.70;;;;;;4311599;33;19974;-44
2021/11/25 13:57:41;;;;;;;;;;;5.80;57.70;;;;;;4311444;33;19970;-43
2021/11/25 14:00:13;;;;;;;;;;;5.80;57.60;;;;;;4311390;33;19975;-45
2021/11/25 14:02:39;;;;;;;;;;;5.80;57.60;;;;;;4299126;33;20509;-44
2021/11/25 14:05:07;;;;;;;;;;;5.80;57.60;;;;;;4316727;32;20099;-44
2021/11/25 14:07:34;;;;;;;;;;;5.80;57.70;;;;;;4358138;32;19965;-44
2021/11/25 14:10:12;;;;;;;;;;;5.90;57.70;;;;;;4358522;32;19993;-43
2021/11/25 14:12:40;;;;;;;;;;;5.90;57.60;;;;;;4358206;32;19970;-47
2021/11/25 14:15:08;;;;;;;;;;;5.90;57.50;;;;;;4358240;32;19970;-41
2021/11/25 14:17:40;;;;;;;;;;;5.90;57.30;;;;;;4358128;32;19990;-47
2021/11/25 14:20:21;;;;;;;;;;;6.00;57.20;;;;;;4325841;33;19978;-43
2021/11/25 14:22:47;;;;;;;;;;;6.00;57.20;;;;;;4314676;33;19990;-44
2021/11/25 14:25:23;;;;;;;;;;;6.00;57.10;;;;;;4326521;33;19974;-45
2021/11/25 14:30:34;;;;;;;;;;;6.00;57.10;;;;;;4315523;33;20428;-41
2021/11/25 14:33:04;;;;;;;;;;;6.10;57.00;;;;;;4326243;33;20010;-43
2021/11/25 14:35:38;;;;;;;;;;;6.10;56.90;;;;;;4313693;33;19980;-43
2021/11/25 14:38:07;;;;;;;;;;;6.20;56.80;;;;;;4325583;33;19975;-42
2021/11/25 14:40:35;;;;;;;;;;;6.20;56.70;;;;;;4325575;33;19978;-43
2021/11/25 14:43:09;;;;;;;;;;;6.20;56.60;;;;;;4326219;33;19977;-43
2021/11/25 14:45:37;;;;;;;;;;;6.20;56.50;;;;;;4325693;33;19977;-42
2021/11/25 14:48:06;;;;;;;;;;;6.20;56.70;;;;;;4325795;33;19982;-43
2021/11/25 14:50:37;;;;;;;;;;;6.20;56.70;;;;;;4338190;32;20008;-43
2021/11/25 14:53:17;;;;;;;;;;;6.30;56.80;;;;;;4373395;32;19962;-43
2021/11/25 14:56:01;;;;;;;;;;;6.30;56.60;;;;;;4372812;32;19978;-44
2021/11/25 14:58:32;;;;;;;;;;;6.30;56.60;;;;;;4372520;32;19977;-36